createdAt,value
2019-04-30T00:02:17.742Z,4.00
2019-04-30T00:04:48.869Z,4.50
2019-04-30T00:07:19.177Z,4.63
2019-04-30T00:09:49.219Z,4.63
2019-04-30T00:12:20.438Z,4.57
2019-04-30T00:14:49.613Z,4.50
2019-04-30T00:17:19.801Z,4.60
2019-04-30T00:19:50.392Z,4.53
2019-04-30T00:22:31.035Z,4.80
2019-04-30T00:24:50.950Z,4.23
2019-04-30T00:27:21.121Z,4.70
2019-04-30T00:29:50.998Z,4.30
2019-04-30T00:32:20.349Z,4.40
2019-04-30T00:34:49.535Z,4.63
2019-04-30T00:37:19.060Z,4.83
2019-04-30T00:39:50.839Z,4.77
2019-04-30T00:42:24.484Z,4.17
2019-04-30T00:44:49.981Z,4.37
2019-04-30T00:47:19.190Z,4.60
2019-04-30T00:49:52.233Z,4.70
2019-04-30T00:52:19.169Z,4.60
2019-04-30T00:54:48.254Z,4.33
2019-04-30T00:57:17.675Z,4.67
2019-04-30T00:59:48.079Z,4.87
2019-04-30T01:02:36.453Z,4.50
2019-04-30T01:05:10.537Z,4.20
2019-04-30T01:07:48.003Z,4.77
2019-04-30T01:10:12.201Z,4.93
2019-04-30T01:12:47.087Z,4.87
2019-04-30T01:15:14.525Z,5.53
2019-04-30T01:17:45.336Z,4.70
2019-04-30T01:20:13.835Z,5.27
2019-04-30T01:22:43.001Z,5.07
2019-04-30T01:25:13.477Z,4.97
2019-04-30T01:27:45.740Z,4.70
2019-04-30T01:30:18.729Z,4.73
2019-04-30T01:32:52.147Z,5.20
2019-04-30T01:35:18.652Z,5.20
2019-04-30T01:37:48.769Z,5.13
2019-04-30T01:40:19.021Z,4.27
2019-04-30T01:42:51.802Z,4.53
2019-04-30T01:45:23.131Z,4.90
2019-04-30T01:47:50.257Z,4.73
2019-04-30T01:50:19.538Z,4.63
2019-04-30T01:52:54.875Z,4.60
2019-04-30T01:55:39.006Z,4.97
2019-04-30T01:58:19.380Z,5.03
2019-04-30T02:00:52.027Z,4.50
2019-04-30T02:03:21.210Z,5.07
2019-04-30T02:05:50.379Z,5.10
2019-04-30T02:08:19.747Z,5.10
2019-04-30T02:10:51.316Z,5.50
2019-04-30T02:13:19.941Z,4.63
2019-04-30T02:15:49.317Z,5.17
2019-04-30T02:18:19.522Z,4.97
2019-04-30T02:20:49.653Z,5.27
2019-04-30T02:23:19.588Z,5.50
2019-04-30T02:25:49.117Z,5.60
2019-04-30T02:28:19.021Z,5.33
2019-04-30T02:30:50.411Z,4.90
2019-04-30T02:33:20.158Z,4.67
2019-04-30T02:36:06.537Z,4.70
2019-04-30T02:38:39.598Z,4.50
2019-04-30T02:41:09.864Z,4.70
2019-04-30T02:43:39.909Z,4.80
2019-04-30T02:46:09.714Z,4.30
2019-04-30T02:48:39.933Z,4.63
2019-04-30T02:51:10.172Z,5.00
2019-04-30T02:54:09.538Z,4.90
2019-04-30T02:56:40.054Z,4.67
2019-04-30T02:59:10.426Z,4.70
2019-04-30T03:01:40.401Z,5.20
2019-04-30T03:04:10.224Z,4.90
2019-04-30T03:06:40.279Z,5.00
2019-04-30T03:09:10.667Z,5.03
2019-04-30T03:11:40.951Z,4.60
2019-04-30T03:14:10.978Z,5.10
2019-04-30T03:17:01.967Z,5.47
2019-04-30T03:19:50.190Z,5.27
2019-04-30T03:22:21.065Z,5.60
2019-04-30T03:24:50.346Z,5.67
2019-04-30T03:27:20.660Z,6.43
2019-04-30T03:29:50.780Z,6.53
2019-04-30T03:32:22.127Z,5.77
2019-04-30T03:34:51.973Z,6.17
2019-04-30T03:37:21.463Z,6.17
2019-04-30T03:39:50.622Z,6.77
2019-04-30T03:42:20.103Z,6.60
2019-04-30T03:44:49.670Z,6.87
2019-04-30T03:47:20.138Z,7.07
2019-04-30T03:49:50.065Z,6.83
2019-04-30T03:52:20.021Z,7.97
2019-04-30T03:54:49.615Z,7.50
2019-04-30T03:57:20.569Z,7.83
2019-04-30T03:59:50.107Z,7.30
2019-04-30T04:02:40.517Z,7.63
2019-04-30T04:05:20.153Z,7.50
2019-04-30T04:08:09.417Z,7.23
2019-04-30T04:11:02.649Z,7.87
2019-04-30T04:13:33.113Z,7.93
2019-04-30T04:16:02.743Z,7.10
2019-04-30T04:18:32.002Z,7.63
2019-04-30T04:21:12.123Z,7.87
2019-04-30T04:23:32.889Z,7.80
2019-04-30T04:26:02.362Z,7.70
2019-04-30T04:28:31.568Z,7.60
2019-04-30T04:31:00.837Z,7.70
2019-04-30T04:33:29.960Z,8.00
2019-04-30T04:35:59.741Z,7.70
2019-04-30T04:38:30.337Z,8.37
2019-04-30T04:41:03.083Z,8.63
2019-04-30T04:43:30.567Z,8.33
2019-04-30T04:45:59.755Z,7.90
2019-04-30T04:48:29.767Z,7.43
2019-04-30T04:51:00.127Z,8.00
2019-04-30T04:53:30.433Z,7.37
2019-04-30T04:55:59.991Z,8.00
2019-04-30T04:58:30.226Z,6.97
2019-04-30T05:00:59.655Z,7.07
2019-04-30T05:03:34.762Z,7.00
2019-04-30T05:06:03.934Z,7.13
2019-04-30T05:08:33.110Z,6.67
2019-04-30T05:11:02.246Z,6.00
2019-04-30T05:13:31.391Z,6.87
2019-04-30T05:16:00.586Z,6.80
2019-04-30T05:18:29.750Z,6.80
2019-04-30T05:20:59.117Z,6.63
2019-04-30T05:23:29.890Z,6.50
2019-04-30T05:25:59.093Z,6.23
2019-04-30T05:28:29.981Z,6.83
2019-04-30T05:30:59.449Z,6.60
2019-04-30T05:33:28.862Z,6.77
2019-04-30T05:35:59.433Z,6.87
2019-04-30T05:38:31.232Z,7.17
2019-04-30T05:40:59.693Z,7.00
2019-04-30T05:43:29.035Z,7.70
2019-04-30T05:45:58.785Z,6.67
2019-04-30T05:48:28.577Z,6.63
2019-04-30T05:50:59.137Z,4.67
2019-04-30T05:53:28.796Z,7.30
2019-04-30T05:55:59.393Z,7.07
2019-04-30T05:58:30.017Z,3.87
2019-04-30T06:00:59.784Z,4.67
2019-04-30T06:03:33.066Z,5.60
2019-04-30T06:06:01.254Z,6.80
2019-04-30T06:08:39.295Z,3.60
2019-04-30T06:11:30.579Z,3.40
2019-04-30T06:14:28.675Z,3.40
2019-04-30T06:17:09.746Z,3.80
2019-04-30T06:19:39.347Z,3.37
2019-04-30T06:22:10.790Z,3.63
2019-04-30T06:24:39.651Z,3.30
2019-04-30T06:27:10.786Z,3.33
2019-04-30T06:29:39.778Z,2.93
2019-04-30T06:32:08.894Z,3.07
2019-04-30T06:34:41.607Z,3.80
2019-04-30T06:37:09.627Z,2.77
2019-04-30T06:39:39.234Z,3.20
2019-04-30T06:42:12.676Z,3.03
2019-04-30T06:44:41.845Z,2.90
2019-04-30T06:47:10.265Z,3.57
2019-04-30T06:49:39.433Z,2.80
2019-04-30T06:52:20.253Z,3.10
2019-04-30T06:54:39.832Z,2.50
2019-04-30T06:57:11.807Z,3.37
2019-04-30T06:59:40.025Z,3.10
2019-04-30T07:02:09.316Z,3.37
2019-04-30T07:04:40.172Z,3.70
2019-04-30T07:07:09.759Z,3.73
2019-04-30T07:09:58.389Z,3.73
2019-04-30T07:12:39.063Z,3.00
2019-04-30T07:15:08.695Z,3.30
2019-04-30T07:17:40.485Z,3.40
2019-04-30T07:20:10.460Z,3.27
2019-04-30T07:22:45.198Z,3.30
2019-04-30T07:25:10.453Z,3.73
2019-04-30T07:27:40.178Z,3.57
2019-04-30T07:30:10.092Z,2.97
2019-04-30T07:32:43.911Z,3.87
2019-04-30T07:35:13.114Z,3.50
2019-04-30T07:37:42.306Z,4.33
2019-04-30T07:40:11.505Z,4.10
2019-04-30T07:42:44.856Z,3.80
2019-04-30T07:45:11.454Z,4.07
2019-04-30T07:47:40.646Z,4.03
2019-04-30T07:50:10.713Z,4.57
2019-04-30T07:52:57.700Z,4.07
2019-04-30T07:55:11.362Z,4.37
2019-04-30T07:57:40.657Z,4.30
2019-04-30T08:00:10.523Z,4.70
2019-04-30T08:02:45.046Z,4.20
2019-04-30T08:05:20.206Z,4.40
2019-04-30T08:07:49.399Z,4.73
2019-04-30T08:10:19.114Z,4.97
2019-04-30T08:12:50.593Z,4.80
2019-04-30T08:15:19.769Z,5.23
2019-04-30T08:18:02.270Z,4.97
2019-04-30T08:20:39.352Z,5.13
2019-04-30T08:23:20.183Z,5.53
2019-04-30T08:25:39.534Z,4.80
2019-04-30T08:28:09.366Z,5.43
2019-04-30T08:30:39.178Z,5.00
2019-04-30T08:33:09.405Z,4.40
2019-04-30T08:35:39.800Z,4.10
2019-04-30T08:38:10.786Z,4.30
2019-04-30T08:40:52.804Z,4.53
2019-04-30T08:43:11.149Z,5.20
2019-04-30T08:45:40.245Z,4.50
2019-04-30T08:48:09.353Z,4.77
2019-04-30T08:50:39.414Z,4.97
2019-04-30T08:53:10.905Z,4.93
2019-04-30T08:55:39.989Z,4.70
2019-04-30T08:58:12.525Z,4.83
2019-04-30T09:00:40.139Z,5.13
2019-04-30T09:03:09.456Z,5.37
2019-04-30T09:06:16.232Z,5.00
2019-04-30T09:08:46.307Z,4.67
2019-04-30T09:11:24.655Z,4.97
2019-04-30T09:13:46.342Z,5.17
2019-04-30T09:16:15.710Z,5.67
2019-04-30T09:18:44.933Z,5.30
2019-04-30T09:21:14.193Z,4.97
2019-04-30T09:23:50.000Z,5.13
2019-04-30T09:26:14.182Z,4.87
2019-04-30T09:28:43.357Z,5.43
2019-04-30T09:31:12.557Z,5.00
2019-04-30T09:33:41.650Z,5.07
2019-04-30T09:36:10.762Z,4.97
2019-04-30T09:38:39.946Z,4.67
2019-04-30T09:41:09.410Z,4.87
2019-04-30T09:43:40.476Z,4.43
2019-04-30T09:46:22.159Z,4.60
2019-04-30T09:48:40.629Z,4.93
2019-04-30T09:51:11.002Z,4.43
2019-04-30T09:53:40.917Z,4.30
2019-04-30T09:56:10.154Z,4.83
2019-04-30T09:58:39.418Z,4.07
2019-04-30T10:01:09.444Z,4.53
2019-04-30T10:03:39.492Z,4.07
2019-04-30T10:06:09.306Z,4.93
2019-04-30T10:08:47.809Z,5.47
2019-04-30T10:11:31.075Z,6.07
2019-04-30T10:14:00.238Z,6.10
2019-04-30T10:16:51.650Z,5.97
2019-04-30T10:19:20.857Z,5.93
2019-04-30T10:21:50.029Z,5.27
2019-04-30T10:24:19.729Z,5.60
2019-04-30T10:26:49.096Z,5.03
2019-04-30T10:29:19.069Z,5.17
2019-04-30T10:31:48.989Z,5.20
2019-04-30T10:34:18.373Z,5.40
2019-04-30T10:36:49.464Z,4.90
2019-04-30T10:39:19.179Z,4.90
2019-04-30T10:41:49.174Z,4.77
2019-04-30T10:44:18.780Z,4.90
2019-04-30T10:46:48.125Z,5.47
2019-04-30T10:49:19.209Z,6.10
2019-04-30T10:51:48.170Z,6.40
2019-04-30T10:54:25.724Z,6.50
2019-04-30T10:56:49.087Z,5.97
2019-04-30T10:59:19.237Z,5.87
2019-04-30T11:01:49.291Z,5.83
2019-04-30T11:04:19.554Z,5.80
2019-04-30T11:06:48.773Z,5.60
2019-04-30T11:09:17.969Z,5.33
2019-04-30T11:11:47.140Z,5.23
2019-04-30T11:14:16.431Z,4.87
2019-04-30T11:16:45.752Z,5.60
2019-04-30T11:19:15.376Z,5.47
2019-04-30T11:21:44.919Z,5.47
2019-04-30T11:24:14.331Z,6.00
2019-04-30T11:26:44.605Z,5.27
2019-04-30T11:29:14.482Z,5.97
2019-04-30T11:32:01.948Z,6.13
2019-04-30T11:34:31.315Z,6.20
2019-04-30T11:37:00.483Z,5.70
2019-04-30T11:39:29.927Z,5.50
2019-04-30T11:41:59.046Z,5.83
2019-04-30T11:44:31.335Z,4.67
2019-04-30T11:47:30.060Z,5.10
2019-04-30T11:49:59.234Z,4.50
2019-04-30T11:52:28.410Z,4.30
2019-04-30T11:54:59.492Z,4.80
2019-04-30T11:57:29.793Z,4.43
2019-04-30T11:59:59.373Z,5.80
2019-04-30T12:02:33.110Z,5.13
2019-04-30T12:05:05.039Z,6.73
2019-04-30T12:08:00.175Z,7.20
2019-04-30T12:11:00.536Z,6.87
2019-04-30T12:13:31.180Z,6.27
2019-04-30T12:16:00.363Z,6.07
2019-04-30T12:18:29.542Z,5.33
2019-04-30T12:20:58.642Z,5.33
2019-04-30T12:23:27.824Z,5.30
2019-04-30T12:25:59.407Z,4.97
2019-04-30T12:28:29.551Z,5.40
2019-04-30T12:30:58.925Z,5.70
2019-04-30T12:33:28.469Z,6.20
2019-04-30T12:35:59.598Z,5.80
2019-04-30T12:38:29.907Z,5.60
2019-04-30T12:40:59.167Z,6.10
2019-04-30T12:43:28.337Z,5.33
2019-04-30T12:46:03.307Z,5.00
2019-04-30T12:48:40.291Z,5.07
2019-04-30T12:51:28.166Z,4.90
2019-04-30T12:54:01.175Z,4.80
2019-04-30T12:56:39.154Z,5.10
2019-04-30T12:59:08.334Z,5.37
2019-04-30T13:01:39.761Z,5.20
2019-04-30T13:04:09.826Z,5.20
2019-04-30T13:06:39.401Z,5.17
2019-04-30T13:09:11.242Z,5.00
2019-04-30T13:11:41.482Z,5.43
2019-04-30T13:14:11.726Z,5.37
2019-04-30T13:16:41.497Z,5.13
2019-04-30T13:19:10.654Z,4.83
2019-04-30T13:21:39.818Z,5.37
2019-04-30T13:24:09.039Z,5.10
2019-04-30T13:26:39.685Z,5.30
2019-04-30T13:29:14.170Z,5.70
2019-04-30T13:31:43.346Z,5.20
2019-04-30T13:34:30.112Z,4.67
2019-04-30T13:36:59.422Z,5.23
2019-04-30T13:39:33.931Z,5.43
2019-04-30T13:42:20.438Z,4.80
2019-04-30T13:44:49.353Z,5.67
2019-04-30T13:47:19.248Z,6.03
2019-04-30T13:49:49.528Z,5.83
2019-04-30T13:52:19.372Z,6.43
2019-04-30T13:54:48.583Z,5.80
2019-04-30T13:57:17.746Z,6.30
2019-04-30T13:59:46.863Z,5.93
2019-04-30T14:02:15.953Z,6.37
2019-04-30T14:05:04.090Z,6.37
2019-04-30T14:07:59.842Z,6.23
2019-04-30T14:10:30.688Z,6.50
2019-04-30T14:13:01.324Z,6.37
2019-04-30T14:15:30.490Z,5.80
2019-04-30T14:17:59.780Z,6.63
2019-04-30T14:20:28.950Z,7.20
2019-04-30T14:22:58.175Z,6.60
2019-04-30T14:25:27.360Z,6.73
2019-04-30T14:27:56.518Z,6.87
2019-04-30T14:30:25.681Z,6.23
2019-04-30T14:32:54.875Z,7.37
2019-04-30T14:35:24.050Z,7.27
2019-04-30T14:37:53.228Z,6.23
2019-04-30T14:40:22.980Z,6.77
2019-04-30T14:43:09.870Z,7.20
2019-04-30T14:45:47.900Z,7.73
2019-04-30T14:48:24.477Z,7.50
2019-04-30T14:50:54.290Z,7.37
2019-04-30T14:53:30.554Z,6.80
2019-04-30T14:56:34.010Z,8.23
2019-04-30T14:59:25.130Z,6.37
2019-04-30T15:02:02.521Z,7.70
2019-04-30T15:04:31.699Z,7.20
2019-04-30T15:07:00.789Z,6.93
2019-04-30T15:09:29.978Z,6.73
2019-04-30T15:11:59.254Z,7.07
2019-04-30T15:14:28.342Z,7.73
2019-04-30T15:16:57.457Z,7.50
2019-04-30T15:19:26.550Z,8.30
2019-04-30T15:21:55.657Z,8.93
2019-04-30T15:24:29.410Z,9.17
2019-04-30T15:26:58.566Z,8.50
2019-04-30T15:29:29.095Z,7.73
2019-04-30T15:31:59.300Z,7.20
2019-04-30T15:34:29.376Z,7.60
2019-04-30T15:36:59.169Z,7.87
2019-04-30T15:39:39.493Z,8.60
2019-04-30T15:42:08.953Z,14.87
2019-04-30T15:44:45.376Z,9.23
2019-04-30T15:47:09.283Z,11.80
2019-04-30T15:49:38.549Z,11.43
2019-04-30T15:52:21.516Z,9.73
2019-04-30T15:54:50.754Z,9.30
2019-04-30T15:57:19.958Z,8.03
2019-04-30T15:59:49.157Z,9.27
2019-04-30T16:02:53.683Z,7.90
2019-04-30T16:05:32.131Z,14.07
2019-04-30T16:08:10.474Z,10.37
2019-04-30T16:11:10.406Z,8.43
2019-04-30T16:13:56.132Z,9.17
2019-04-30T16:16:27.427Z,10.70
2019-04-30T16:18:56.638Z,10.17
2019-04-30T16:21:25.842Z,11.43
2019-04-30T16:23:55.070Z,9.13
2019-04-30T16:26:24.318Z,8.73
2019-04-30T16:28:53.522Z,9.23
2019-04-30T16:31:22.786Z,8.73
2019-04-30T16:33:51.998Z,8.60
2019-04-30T16:36:21.201Z,8.43
2019-04-30T16:38:51.279Z,8.77
2019-04-30T16:41:31.170Z,9.47
2019-04-30T16:43:51.362Z,9.37
2019-04-30T16:46:20.537Z,9.03
2019-04-30T16:48:49.641Z,10.03
2019-04-30T16:51:18.936Z,9.13
2019-04-30T16:53:48.681Z,10.00
2019-04-30T16:56:18.605Z,11.07
2019-04-30T16:59:00.143Z,10.90
2019-04-30T17:01:29.892Z,10.00
2019-04-30T17:04:11.132Z,9.63
2019-04-30T17:06:43.113Z,10.07
2019-04-30T17:09:18.349Z,10.53
2019-04-30T17:12:05.189Z,10.07
2019-04-30T17:14:35.337Z,9.43
2019-04-30T17:17:04.581Z,10.17
2019-04-30T17:19:33.778Z,10.13
2019-04-30T17:22:02.954Z,10.13
2019-04-30T17:24:32.178Z,10.67
2019-04-30T17:27:01.290Z,10.40
2019-04-30T17:29:30.486Z,10.80
2019-04-30T17:31:59.678Z,10.97
2019-04-30T17:34:30.806Z,10.37
2019-04-30T17:36:59.678Z,10.90
2019-04-30T17:39:29.062Z,11.23
2019-04-30T17:41:58.250Z,10.40
2019-04-30T17:44:28.937Z,10.90
2019-04-30T17:46:59.977Z,9.73
2019-04-30T17:49:28.962Z,10.93
2019-04-30T17:51:59.179Z,11.40
2019-04-30T17:54:28.514Z,11.40
2019-04-30T17:56:57.722Z,12.10
2019-04-30T17:59:26.893Z,11.63
2019-04-30T18:02:00.278Z,11.37
2019-04-30T18:04:29.813Z,10.93
2019-04-30T18:07:05.131Z,11.03
2019-04-30T18:09:34.438Z,11.03
2019-04-30T18:12:03.626Z,10.77
2019-04-30T18:14:32.889Z,10.07
2019-04-30T18:17:02.098Z,10.07
2019-04-30T18:19:50.219Z,10.37
2019-04-30T18:22:33.506Z,10.97
2019-04-30T18:25:12.016Z,10.77
2019-04-30T18:27:49.461Z,10.90
2019-04-30T18:30:21.516Z,10.40
2019-04-30T18:32:50.715Z,10.77
2019-04-30T18:35:20.394Z,11.10
2019-04-30T18:37:49.922Z,11.80
2019-04-30T18:40:19.235Z,12.10
2019-04-30T18:42:49.438Z,14.00
2019-04-30T18:45:19.521Z,14.37
2019-04-30T18:47:48.925Z,14.90
2019-04-30T18:50:18.338Z,12.70
2019-04-30T18:52:50.361Z,12.73
2019-04-30T18:55:19.273Z,12.30
2019-04-30T18:57:56.312Z,11.97
2019-04-30T19:00:29.388Z,13.47
2019-04-30T19:02:58.697Z,14.17
2019-04-30T19:05:29.393Z,15.27
2019-04-30T19:08:04.458Z,14.97
2019-04-30T19:10:53.722Z,14.93
2019-04-30T19:13:50.968Z,14.23
2019-04-30T19:16:30.723Z,15.37
2019-04-30T19:19:09.387Z,14.73
2019-04-30T19:21:40.416Z,14.30
2019-04-30T19:24:09.816Z,14.00
2019-04-30T19:26:38.993Z,14.93
2019-04-30T19:29:08.182Z,13.77
2019-04-30T19:31:39.364Z,14.57
2019-04-30T19:34:09.759Z,14.63
2019-04-30T19:36:40.729Z,15.70
2019-04-30T19:39:11.706Z,15.47
2019-04-30T19:41:40.930Z,14.87
2019-04-30T19:44:10.123Z,14.90
2019-04-30T19:46:39.274Z,14.27
2019-04-30T19:49:09.801Z,14.57
2019-04-30T19:51:40.203Z,14.97
2019-04-30T19:54:11.361Z,14.60
2019-04-30T19:56:40.651Z,15.00
2019-04-30T19:59:09.894Z,15.73
2019-04-30T20:01:39.195Z,15.93
2019-04-30T20:04:09.825Z,15.47
2019-04-30T20:06:39.122Z,17.03
2019-04-30T20:09:08.918Z,17.53
2019-04-30T20:11:39.798Z,14.77
2019-04-30T20:14:10.432Z,14.83
2019-04-30T20:16:40.264Z,13.83
2019-04-30T20:19:09.591Z,13.27
2019-04-30T20:21:48.141Z,14.63
2019-04-30T20:24:09.781Z,14.07
2019-04-30T20:26:39.101Z,14.83
2019-04-30T20:29:08.974Z,15.93
2019-04-30T20:31:38.627Z,16.00
2019-04-30T20:34:09.157Z,15.77
2019-04-30T20:36:38.875Z,15.83
2019-04-30T20:39:26.144Z,15.87
2019-04-30T20:41:55.825Z,14.87
2019-04-30T20:44:25.025Z,16.07
2019-04-30T20:46:54.197Z,15.13
2019-04-30T20:49:23.317Z,15.53
2019-04-30T20:51:55.719Z,15.83
2019-04-30T20:54:24.213Z,16.27
2019-04-30T20:56:53.397Z,14.97
2019-04-30T20:59:22.583Z,16.03
2019-04-30T21:01:51.691Z,15.87
2019-04-30T21:04:21.055Z,14.73
2019-04-30T21:06:50.286Z,15.07
2019-04-30T21:09:19.589Z,16.07
2019-04-30T21:11:49.048Z,15.07
2019-04-30T21:14:19.270Z,15.53
2019-04-30T21:16:48.666Z,16.57
2019-04-30T21:19:18.034Z,17.57
2019-04-30T21:21:47.221Z,18.27
2019-04-30T21:24:16.446Z,17.87
2019-04-30T21:26:45.688Z,19.07
2019-04-30T21:29:16.053Z,20.43
2019-04-30T21:32:21.169Z,18.83
2019-04-30T21:35:09.115Z,18.97
2019-04-30T21:37:38.333Z,19.37
2019-04-30T21:40:09.747Z,18.90
2019-04-30T21:42:38.374Z,20.50
2019-04-30T21:45:07.661Z,20.37
2019-04-30T21:47:36.821Z,20.50
2019-04-30T21:50:06.065Z,21.57
2019-04-30T21:52:35.249Z,22.00
2019-04-30T21:55:04.473Z,22.33
2019-04-30T21:57:33.570Z,22.93
2019-04-30T22:00:02.758Z,22.97
2019-04-30T22:02:32.098Z,24.10
2019-04-30T22:05:02.317Z,24.40
2019-04-30T22:07:31.494Z,26.50
2019-04-30T22:10:00.701Z,26.87
2019-04-30T22:12:31.171Z,26.80
2019-04-30T22:15:00.721Z,28.03
2019-04-30T22:17:29.909Z,28.33
2019-04-30T22:19:59.657Z,29.60
2019-04-30T22:22:29.215Z,28.83
2019-04-30T22:24:59.711Z,31.50
2019-04-30T22:27:29.089Z,30.10
2019-04-30T22:29:58.279Z,28.87
2019-04-30T22:32:27.486Z,29.47
2019-04-30T22:34:58.250Z,28.90
2019-04-30T22:37:27.350Z,29.17
2019-04-30T22:40:02.953Z,28.87
2019-04-30T22:42:33.106Z,28.03
2019-04-30T22:45:02.474Z,28.67
2019-04-30T22:47:31.690Z,29.30
2019-04-30T22:50:00.862Z,30.70
2019-04-30T22:52:30.031Z,29.50
2019-04-30T22:54:59.237Z,28.50
2019-04-30T22:57:28.422Z,26.57
2019-04-30T22:59:57.621Z,29.07
2019-04-30T23:02:45.673Z,29.40
2019-04-30T23:05:15.855Z,29.37
2019-04-30T23:07:45.037Z,29.20
2019-04-30T23:10:14.246Z,28.03
2019-04-30T23:12:43.494Z,29.07
2019-04-30T23:15:12.629Z,29.17
2019-04-30T23:17:41.879Z,27.93
2019-04-30T23:20:11.345Z,28.00
2019-04-30T23:22:40.529Z,28.07
2019-04-30T23:25:09.845Z,27.63
2019-04-30T23:27:39.022Z,27.13
2019-04-30T23:30:08.238Z,29.07
2019-04-30T23:32:37.478Z,28.57
2019-04-30T23:35:06.649Z,27.90
2019-04-30T23:37:35.829Z,27.13
2019-04-30T23:40:24.961Z,26.77
2019-04-30T23:42:54.249Z,26.30
2019-04-30T23:45:23.447Z,27.77
2019-04-30T23:47:52.713Z,27.07
2019-04-30T23:50:21.881Z,26.27
2019-04-30T23:52:51.057Z,27.43
2019-04-30T23:55:20.369Z,26.30
2019-04-30T23:57:49.625Z,27.20
